Nearby METAR Reports

 

KIMT - Iron Mountain, Michigan, USA
Distance from station: 0 29mi, 47km
Updated: Thu, 20-Jun-2024 9:54pm CDT
Overcast
Overcast
 Wind from NNE
Wind: NNE 3 mph, 6 km/h
Temperature: 64°F, 18°C
Dew Point: 54°F, 12°C
Humidity: 68%
Barometer: 30.31 inHg, 1026.4 hPa
Clouds: Overcast
Visibility: 10 miles, 16 km
Cloud details: Mostly cloudy 6000 ft
Overcast 12000 ft
2024/06/21 02:54 KIMT 210254Z AUTO 03003KT 10SM BKN060 OVC120 18/12 A3031 RMK AO2 SLP264 T01780122 53006
KMNM - Menominee, Michigan, USA
Distance from station: SE 31mi, 51km
Updated: Thu, 20-Jun-2024 9:57pm CDT
Light rain, Overcast
Light rain, Overcast
 Wind from calm
Wind: Calm
Temperature: 64°F, 18°C
Dew Point: 59°F, 15°C
Humidity: 83%
Barometer: 30.31 inHg, 1026.4 hPa
Summary: Light rain
Clouds: Overcast
Visibility: 9 miles, 14 km
Cloud details: Few Clouds 3000 ft
Overcast 10000 ft
2024/06/21 02:57 KMNM 210257Z AUTO 00000KT 9SM -RA FEW030 OVC100 18/15 A3031 RMK AO2 RAB50 SLP279 P0000 60000 T01780150 53003 $
 
KOCQ - Oconto, Wisconsin, USA
Distance from station: SSE 38mi, 61km
Updated: Thu, 20-Jun-2024 10:15pm CDT
Overcast
Overcast
 Wind from calm
Wind: Calm
Temperature: 64°F, 18°C
Dew Point: 63°F, 17°C
Humidity: 94%
Barometer: 30.29 inHg, 1025.7 hPa
Clouds: Overcast
Visibility: 10 miles, 16 km
Cloud details: Partly cloudy 6500 ft
Overcast 9000 ft
2024/06/21 03:15 KOCQ 210315Z AUTO 00000KT 10SM SCT065 OVC090 18/17 A3029 RMK AO1 T01810166
KEZS - Shawano Muni, Wisconsin, USA
Distance from station: SSW 48mi, 77km
Updated: Thu, 20-Jun-2024 10:15pm CDT
Overcast
Overcast
 Wind from calm
Wind: Calm
Temperature: 64°F, 18°C
Dew Point: 59°F, 15°C
Humidity: 83%
Barometer: 30.31 inHg, 1026.4 hPa
Clouds: Overcast
Visibility: 10 miles, 16 km
Cloud details: Partly cloudy 3100 ft
Mostly cloudy 4600 ft
Overcast 5500 ft
2024/06/21 03:15 KEZS 210315Z AUTO 00000KT 10SM SCT031 BKN046 OVC055 18/15 A3031 RMK AO2 T01810150
 
KAIG - Antigo/Langlade, Wisconsin, USA
Distance from station: WSW 51mi, 82km
Updated: Thu, 20-Jun-2024 10:15pm CDT
Overcast
Overcast
 Wind from calm
Wind: Calm
Temperature: 63°F, 17°C
Dew Point: 59°F, 15°C
Humidity: 88%
Barometer: 30.33 inHg, 1027.1 hPa
Clouds: Overcast
Visibility: 10 miles, 16 km
Cloud details: Overcast 3800 ft
2024/06/21 03:15 KAIG 210315Z AUTO 00000KT 10SM OVC038 17/15 A3033 RMK AO2 T01700147
KSUE - Sturgeon Bay, Wisconsin, USA
Distance from station: SE 51mi, 82km
Updated: Thu, 20-Jun-2024 9:56pm CDT
Overcast
Overcast
 Wind from NE
Wind: NE 3 mph, 6 km/h
Temperature: 64°F, 18°C
Dew Point: 57°F, 14°C
Humidity: 78%
Barometer: 30.29 inHg, 1025.7 hPa
Clouds: Overcast
Visibility: 10 miles, 16 km
Cloud details: Mostly cloudy 7000 ft
Overcast 9000 ft
2024/06/21 02:56 KSUE 210256Z AUTO 04003KT 10SM BKN070 OVC090 18/14 A3029 RMK AO2 SLP257 T01780139 56002
 
KESC - Escanaba, Michigan, USA
Distance from station: ENE 56mi, 90km
Updated: Thu, 20-Jun-2024 9:56pm CDT
Few Clouds
Few Clouds
 Wind from N
Wind: N 8 mph, 13 km/h
Temperature: 61°F, 16°C
Dew Point: 54°F, 12°C
Humidity: 77%
Barometer: 30.32 inHg, 1026.8 hPa
Clouds: Few Clouds
Visibility: 10 miles, 16 km
Cloud details: Few Clouds 11000 ft
2024/06/21 02:56 KESC 210256Z AUTO 01007KT 10SM FEW110 16/12 A3032 RMK AO2 SLP270 T01610122 53004 $
KCLI - Clintonville, Wisconsin, USA
Distance from station: SSW 62mi, 99km
Updated: Thu, 20-Jun-2024 10:15pm CDT
Overcast
Overcast
 Wind from NW
Wind: NW 3 mph, 6 km/h
Temperature: 61°F, 16°C
Dew Point: 59°F, 15°C
Humidity: 94%
Barometer: 30.32 inHg, 1026.8 hPa
Clouds: Overcast
Visibility: 10 miles, 16 km
Cloud details: Overcast 2900 ft
2024/06/21 03:15 KCLI 210315Z AUTO 32003KT 10SM OVC029 16/15 A3032 RMK AO2 T01560146
 
KGRB - Ashwaubenon, Wisconsin, USA
Distance from station: S 63mi, 102km
Updated: Thu, 20-Jun-2024 9:53pm CDT
Overcast
Overcast
 Wind from calm
Wind: Calm
Temperature: 66°F, 19°C
Dew Point: 61°F, 16°C
Humidity: 83%
Barometer: 30.28 inHg, 1025.4 hPa
Clouds: Overcast
Visibility: 10 miles, 16 km
Cloud details: Overcast 5000 ft
2024/06/21 02:53 KGRB 210253Z 00000KT 10SM OVC050 19/16 A3028 RMK AO2 SLP253 T01940161 57002 $
KEGV - Eagle River, Wisconsin, USA
Distance from station: NW 66mi, 107km
Updated: Thu, 20-Jun-2024 10:15pm CDT
Overcast
Overcast
 Wind from SSE
Wind: SSE 5 mph, 7 km/h
Temperature: 61°F, 16°C
Dew Point: 52°F, 11°C
Humidity: 72%
Barometer: 30.31 inHg, 1026.4 hPa
Clouds: Overcast
Visibility: 10 miles, 16 km
Cloud details: Partly cloudy 4300 ft
Overcast 7000 ft
2024/06/21 03:15 KEGV 210315Z AUTO 15004KT 10SM SCT043 OVC070 16/11 A3031 RMK AO2 T01640112
 
KRHI - Rhinelander, Wisconsin, USA
Distance from station: WNW 68mi, 109km
Updated: Thu, 20-Jun-2024 9:53pm CDT
Overcast
Overcast
 Wind from NE
Wind: NE 3 mph, 6 km/h
Temperature: 64°F, 18°C
Dew Point: 55°F, 13°C
Humidity: 73%
Barometer: 30.33 inHg, 1027.1 hPa
Clouds: Overcast
Visibility: 10 miles, 16 km
Cloud details: Overcast 3700 ft
2024/06/21 02:53 KRHI 210253Z AUTO 04003KT 10SM OVC037 18/13 A3033 RMK AO2 SLP268 T01830128 50010
KLNL - Land O Lakes, Wisconsin, USA
Distance from station: NW 74mi, 119km
Updated: Thu, 20-Jun-2024 10:15pm CDT
Overcast
Overcast
 Wind from calm
Wind: Calm
Temperature: 59°F, 15°C
Dew Point: 54°F, 12°C
Humidity: 82%
Barometer: 30.33 inHg, 1027.1 hPa
Clouds: Overcast
Visibility: 10 miles, 16 km
Cloud details: Overcast 9000 ft
2024/06/21 03:15 KLNL 210315Z AUTO 00000KT 10SM OVC090 15/12 A3033 RMK AO2 T01500117
 
KSAW - Gwinn/Sawyer, Michigan, USA
Distance from station: NNE 74mi, 120km
Updated: Thu, 20-Jun-2024 10:18pm CDT
Few Clouds
Few Clouds
 Wind from NNE
Wind: NNE 3 mph, 6 km/h
Temperature: 54°F, 12°C
Dew Point: 50°F, 10°C
Humidity: 88%
Barometer: 30.33 inHg, 1027.1 hPa
Clouds: Few Clouds
Visibility: 10 miles, 16 km
Cloud details: Few Clouds 12000 ft
2024/06/21 03:18 KSAW 210318Z AUTO 03003KT 10SM FEW120 12/10 A3033 RMK AO2